Time;durP1;ratioP1;P1;durP2;ratioP2;P2;SDS_P1;SDS_P2;PMS_P1;PMS_P2;Temp;Humidity;BMP_temperature;BMP_pressure;BME280_temperature;BME280_humidity;BME280_pressure;Samples;Min_cycle;Max_cycle;Signal;HPM_P1;HPM_P2
2021/08/16 00:01:51;;;;;;;0.75;0.52;;;20.80;99.90;;;;;;5067908;28;20169;-74
2021/08/16 00:04:17;;;;;;;2.47;1.20;;;20.80;99.90;;;;;;5069215;28;20156;-73
2021/08/16 00:06:44;;;;;;;0.52;0.52;;;20.80;99.90;;;;;;5067872;28;20176;-74
2021/08/16 00:09:10;;;;;;;0.40;0.40;;;20.70;99.90;;;;;;5067761;28;20203;-74
2021/08/16 00:11:39;;;;;;;1.27;1.13;;;20.60;99.90;;;;;;5069255;28;20191;-73
2021/08/16 00:14:05;;;;;;;0.75;0.75;;;20.50;99.90;;;;;;5069062;28;20180;-74
2021/08/16 00:16:32;;;;;;;0.90;0.90;;;20.40;99.90;;;;;;5067668;28;20168;-74
2021/08/16 00:18:58;;;;;;;1.30;1.23;;;20.40;99.90;;;;;;5068423;28;20242;-74
2021/08/16 00:21:24;;;;;;;0.45;0.45;;;20.20;99.90;;;;;;5068875;28;20165;-76
2021/08/16 00:23:50;;;;;;;1.63;1.10;;;20.00;99.90;;;;;;5067513;28;20230;-75
2021/08/16 00:26:16;;;;;;;0.22;0.22;;;19.80;99.90;;;;;;5068805;28;20169;-74
2021/08/16 00:28:42;;;;;;;0.60;0.55;;;19.80;99.90;;;;;;5067360;28;20169;-73
2021/08/16 00:31:08;;;;;;;2.67;1.13;;;19.70;99.90;;;;;;5068778;28;20238;-73
2021/08/16 00:33:34;;;;;;;0.77;0.77;;;19.70;99.90;;;;;;5068660;28;20153;-74
2021/08/16 00:36:00;;;;;;;3.65;0.82;;;19.70;99.90;;;;;;5067384;28;20168;-74
2021/08/16 00:38:27;;;;;;;2.60;1.15;;;19.60;99.90;;;;;;5068594;28;20184;-73
2021/08/16 00:40:53;;;;;;;0.63;0.63;;;19.50;99.90;;;;;;5068223;28;20576;-73
2021/08/16 00:43:19;;;;;;;5.30;1.38;;;19.50;99.90;;;;;;5068749;28;20581;-74
2021/08/16 00:45:45;;;;;;;1.08;0.77;;;19.50;99.90;;;;;;5068605;28;20161;-74
2021/08/16 00:48:11;;;;;;;1.02;1.02;;;19.50;99.90;;;;;;5067079;28;20216;-73
2021/08/16 00:50:37;;;;;;;0.68;0.68;;;19.70;99.90;;;;;;5068276;28;20208;-73
2021/08/16 00:53:05;;;;;;;2.05;0.63;;;19.70;99.90;;;;;;5068487;28;20188;-73
2021/08/16 00:55:32;;;;;;;1.58;1.48;;;19.30;99.90;;;;;;5068484;28;20538;-74
2021/08/16 00:58:00;;;;;;;0.55;0.55;;;19.30;99.90;;;;;;5068352;28;20153;-75
2021/08/16 01:00:27;;;;;;;0.82;0.75;;;19.50;99.90;;;;;;5067937;28;20222;-74
2021/08/16 01:02:52;;;;;;;0.90;0.60;;;19.60;99.90;;;;;;5067014;28;20173;-75
2021/08/16 01:05:19;;;;;;;0.80;0.80;;;20.00;99.90;;;;;;5068300;28;20182;-74
2021/08/16 01:07:48;;;;;;;0.55;0.55;;;19.90;99.90;;;;;;5068293;28;20234;-74
2021/08/16 01:10:15;;;;;;;0.68;0.68;;;19.90;99.90;;;;;;5067673;28;20215;-74
2021/08/16 01:12:41;;;;;;;0.90;0.55;;;19.60;99.90;;;;;;5068563;28;20157;-74
2021/08/16 01:15:11;;;;;;;0.82;0.80;;;19.70;99.90;;;;;;5068802;28;20208;-74
2021/08/16 01:17:41;;;;;;;0.75;0.75;;;19.80;99.90;;;;;;5068390;28;20153;-74
2021/08/16 01:20:08;;;;;;;1.15;0.40;;;19.80;99.90;;;;;;5067931;28;20195;-75
2021/08/16 01:22:35;;;;;;;2.00;0.80;;;19.30;99.90;;;;;;5068146;28;20164;-74
2021/08/16 01:25:04;;;;;;;3.53;1.08;;;19.10;99.90;;;;;;5066773;28;20176;-74
2021/08/16 01:27:30;;;;;;;0.65;0.65;;;19.00;99.90;;;;;;5067990;28;20165;-74
2021/08/16 01:30:00;;;;;;;0.85;0.85;;;19.10;99.90;;;;;;5067373;28;20279;-74
2021/08/16 01:32:27;;;;;;;0.52;0.52;;;19.50;99.90;;;;;;5068112;28;20157;-74
2021/08/16 01:34:53;;;;;;;0.43;0.43;;;19.50;99.90;;;;;;5068422;28;20172;-74
2021/08/16 01:37:19;;;;;;;1.42;0.85;;;19.20;99.90;;;;;;5072071;28;20176;-74
2021/08/16 01:39:45;;;;;;;0.95;0.95;;;19.20;99.90;;;;;;5070118;28;20196;-74
2021/08/16 01:42:11;;;;;;;1.10;1.00;;;19.30;99.90;;;;;;5072113;28;20187;-74
2021/08/16 01:44:37;;;;;;;1.38;0.95;;;19.40;99.90;;;;;;5071993;28;20161;-74
2021/08/16 01:47:04;;;;;;;0.75;0.75;;;19.30;99.90;;;;;;5071925;28;20172;-74
2021/08/16 01:49:30;;;;;;;0.20;0.20;;;19.20;99.90;;;;;;5070160;28;20224;-73
2021/08/16 01:51:56;;;;;;;0.43;0.43;;;19.10;99.90;;;;;;5071873;28;20168;-74
2021/08/16 01:54:21;;;;;;;0.50;0.50;;;19.00;99.90;;;;;;5071827;28;20149;-74
2021/08/16 01:56:47;;;;;;;2.70;2.50;;;18.90;99.90;;;;;;5071677;28;20264;-74
2021/08/16 01:59:13;;;;;;;0.70;0.70;;;18.90;99.90;;;;;;5071609;28;20164;-74
2021/08/16 02:01:39;;;;;;;0.77;0.77;;;19.00;99.90;;;;;;5069005;28;20222;-73
2021/08/16 02:04:05;;;;;;;3.08;1.05;;;18.90;99.90;;;;;;5071577;28;20173;-74
2021/08/16 02:06:31;;;;;;;0.73;0.65;;;18.80;99.90;;;;;;5071539;28;20217;-74
2021/08/16 02:08:57;;;;;;;1.10;1.10;;;18.70;99.90;;;;;;5071410;28;20184;-74
2021/08/16 02:11:24;;;;;;;6.85;0.93;;;18.80;99.90;;;;;;5070870;28;20295;-74
2021/08/16 02:13:50;;;;;;;0.65;0.65;;;18.90;99.90;;;;;;5071399;28;20163;-74
2021/08/16 02:16:16;;;;;;;0.95;0.80;;;18.90;99.90;;;;;;5069974;28;20169;-74
2021/08/16 02:18:42;;;;;;;1.25;1.15;;;18.70;99.90;;;;;;5071242;28;20157;-74
2021/08/16 02:21:08;;;;;;;7.90;1.33;;;18.60;99.90;;;;;;5071417;28;20216;-74
2021/08/16 02:23:33;;;;;;;0.88;0.88;;;18.50;99.90;;;;;;5070692;28;20204;-74
2021/08/16 02:25:59;;;;;;;2.20;1.25;;;18.80;99.90;;;;;;5069772;28;20177;-74
2021/08/16 02:28:27;;;;;;;1.08;1.00;;;18.80;99.90;;;;;;5071037;28;20165;-74
2021/08/16 02:30:53;;;;;;;1.38;1.23;;;18.60;99.90;;;;;;5069886;28;20196;-74
2021/08/16 02:33:19;;;;;;;2.30;0.47;;;18.60;99.90;;;;;;5069104;28;20192;-75
2021/08/16 02:35:45;;;;;;;0.30;0.30;;;18.50;99.90;;;;;;5069797;28;20193;-76
2021/08/16 02:38:12;;;;;;;0.30;0.30;;;18.50;99.90;;;;;;5069524;28;20175;-76
2021/08/16 02:40:39;;;;;;;0.43;0.43;;;18.50;99.90;;;;;;5071238;28;20165;-76
2021/08/16 02:43:06;;;;;;;4.00;1.60;;;18.40;99.90;;;;;;5070541;28;20200;-76
2021/08/16 02:45:32;;;;;;;0.20;0.20;;;18.80;99.90;;;;;;5070094;28;20182;-74
2021/08/16 02:47:57;;;;;;;0.43;0.43;;;18.50;99.90;;;;;;5069038;28;20267;-73
2021/08/16 02:50:24;;;;;;;0.65;0.65;;;18.50;99.90;;;;;;5070840;28;20192;-75
2021/08/16 02:52:51;;;;;;;0.30;0.30;;;18.70;99.90;;;;;;5070436;28;20227;-76
2021/08/16 02:55:18;;;;;;;0.47;0.35;;;19.10;99.90;;;;;;5070941;28;20163;-74
2021/08/16 02:57:44;;;;;;;4.32;0.68;;;19.00;99.90;;;;;;5070725;28;20192;-75
2021/08/16 03:00:10;;;;;;;0.52;0.40;;;18.60;99.90;;;;;;5070766;28;20504;-75
2021/08/16 03:02:36;;;;;;;5.05;0.88;;;18.40;99.90;;;;;;5069249;28;20201;-76
2021/08/16 03:05:03;;;;;;;0.52;0.52;;;18.40;99.90;;;;;;5069250;28;20175;-75
2021/08/16 03:07:31;;;;;;;0.75;0.73;;;18.70;99.90;;;;;;5070845;28;20161;-76
2021/08/16 03:09:57;;;;;;;0.40;0.40;;;19.00;99.90;;;;;;5068733;28;20200;-75
2021/08/16 03:12:22;;;;;;;0.60;0.60;;;18.80;99.90;;;;;;5070444;28;20175;-75
2021/08/16 03:14:48;;;;;;;1.13;0.77;;;18.70;99.90;;;;;;5069691;28;20291;-75
2021/08/16 03:17:14;;;;;;;1.55;1.05;;;18.90;99.90;;;;;;5070880;28;20161;-75
2021/08/16 03:19:40;;;;;;;0.63;0.30;;;18.90;99.90;;;;;;5069982;28;20164;-75
2021/08/16 03:22:06;;;;;;;0.80;0.80;;;18.80;99.90;;;;;;5068566;28;20189;-75
2021/08/16 03:24:32;;;;;;;1.15;0.75;;;19.00;99.90;;;;;;5069371;28;20533;-75
2021/08/16 03:26:59;;;;;;;0.25;0.25;;;19.20;99.90;;;;;;5070092;28;20161;-77
2021/08/16 03:29:25;;;;;;;0.80;0.80;;;19.20;99.90;;;;;;5070200;28;20308;-76
2021/08/16 03:31:52;;;;;;;0.38;0.38;;;19.30;99.90;;;;;;5069884;28;20157;-74
2021/08/16 03:34:19;;;;;;;0.55;0.55;;;19.30;99.90;;;;;;5067653;28;20199;-74
2021/08/16 03:36:44;;;;;;;1.10;0.77;;;18.90;99.90;;;;;;5068190;28;20203;-74
2021/08/16 03:39:10;;;;;;;2.75;0.75;;;18.80;99.90;;;;;;5068284;28;20195;-74
2021/08/16 03:41:36;;;;;;;0.47;0.47;;;18.60;99.90;;;;;;5069554;28;20173;-75
2021/08/16 03:44:03;;;;;;;0.52;0.32;;;18.60;99.90;;;;;;5068259;28;20204;-74
2021/08/16 03:46:29;;;;;;;1.42;1.33;;;18.50;99.90;;;;;;5068038;28;20191;-75
2021/08/16 03:48:55;;;;;;;0.98;0.98;;;18.50;99.90;;;;;;5067557;28;20240;-74
2021/08/16 03:51:22;;;;;;;14.15;1.15;;;18.50;99.90;;;;;;5068266;28;20203;-75
2021/08/16 03:53:48;;;;;;;0.50;0.50;;;18.50;99.90;;;;;;5067871;28;20322;-74
2021/08/16 03:56:14;;;;;;;5.40;1.55;;;18.50;99.90;;;;;;5069096;28;20153;-74
2021/08/16 03:58:41;;;;;;;4.22;1.42;;;18.50;99.90;;;;;;5068955;28;20157;-76
2021/08/16 04:01:09;;;;;;;0.95;0.95;;;18.50;99.90;;;;;;5069268;28;20172;-75
2021/08/16 04:03:35;;;;;;;0.63;0.32;;;18.80;99.90;;;;;;5069183;28;20275;-75
2021/08/16 04:06:01;;;;;;;1.33;0.70;;;19.10;99.90;;;;;;5068022;28;20180;-73
2021/08/16 04:08:27;;;;;;;0.30;0.30;;;19.00;99.90;;;;;;5069308;28;20169;-74
2021/08/16 04:10:53;;;;;;;13.27;1.58;;;18.80;99.90;;;;;;5068036;28;20220;-76
2021/08/16 04:13:19;;;;;;;0.95;0.88;;;18.60;99.90;;;;;;5066925;28;20203;-75
2021/08/16 04:15:45;;;;;;;2.75;1.55;;;18.50;99.90;;;;;;5067524;28;20207;-75
2021/08/16 04:18:11;;;;;;;0.50;0.50;;;18.40;99.90;;;;;;5068822;28;20245;-74
2021/08/16 04:20:37;;;;;;;0.60;0.52;;;18.40;99.90;;;;;;5068538;28;20224;-73
2021/08/16 04:23:03;;;;;;;0.85;0.85;;;18.40;99.90;;;;;;5067367;28;20232;-74
2021/08/16 04:25:29;;;;;;;0.60;0.60;;;18.40;99.90;;;;;;5068082;28;20192;-74
2021/08/16 04:27:55;;;;;;;0.85;0.85;;;18.80;99.90;;;;;;5068888;28;20171;-75
2021/08/16 04:30:21;;;;;;;0.40;0.40;;;19.20;99.90;;;;;;5067149;28;20196;-75
2021/08/16 04:32:48;;;;;;;0.15;0.15;;;18.90;99.90;;;;;;5067066;28;20173;-75
2021/08/16 04:35:13;;;;;;;6.07;0.85;;;19.10;99.90;;;;;;5068086;28;20204;-74
2021/08/16 04:37:41;;;;;;;0.65;0.57;;;19.20;99.90;;;;;;5068441;28;20157;-74
2021/08/16 04:40:09;;;;;;;0.38;0.38;;;19.40;99.90;;;;;;5067232;28;20176;-74
2021/08/16 04:42:35;;;;;;;0.43;0.43;;;19.90;99.90;;;;;;5068414;28;20168;-74
2021/08/16 04:45:02;;;;;;;1.33;1.27;;;20.20;99.90;;;;;;5066657;28;20271;-73
2021/08/16 04:47:28;;;;;;;0.73;0.73;;;20.30;99.90;;;;;;5068572;28;20159;-77
2021/08/16 04:49:56;;;;;;;0.52;0.52;;;20.30;99.90;;;;;;5068784;28;20212;-74
2021/08/16 04:52:23;;;;;;;0.95;0.95;;;20.50;99.90;;;;;;5068562;28;20156;-74
2021/08/16 04:54:49;;;;;;;1.55;1.45;;;20.90;99.90;;;;;;5068107;28;20184;-74
2021/08/16 04:57:25;;;;;;;0.82;0.82;;;21.30;99.90;;;;;;5066811;28;20161;-75
2021/08/16 04:59:51;;;;;;;12.68;1.42;;;21.50;99.90;;;;;;5067997;28;20168;-74
2021/08/16 05:02:16;;;;;;;0.50;0.50;;;21.70;99.90;;;;;;5068534;28;20156;-75
2021/08/16 05:04:42;;;;;;;0.68;0.68;;;21.90;99.90;;;;;;5067621;28;20200;-75
2021/08/16 05:07:08;;;;;;;0.75;0.75;;;22.10;99.90;;;;;;5067889;28;20170;-75
2021/08/16 05:09:34;;;;;;;1.63;1.45;;;22.10;99.90;;;;;;5067304;28;20219;-74
2021/08/16 05:12:00;;;;;;;2.03;1.17;;;22.50;99.90;;;;;;5066636;28;20176;-74
2021/08/16 05:14:26;;;;;;;3.35;1.75;;;22.70;99.90;;;;;;5066418;28;20217;-74
2021/08/16 05:16:51;;;;;;;0.82;0.82;;;22.90;99.90;;;;;;5067880;28;20216;-74
2021/08/16 05:19:17;;;;;;;1.88;1.38;;;23.10;99.90;;;;;;5067699;28;20176;-74
2021/08/16 05:21:43;;;;;;;1.75;1.27;;;23.00;99.90;;;;;;5067768;28;20168;-74
2021/08/16 05:24:09;;;;;;;1.17;1.08;;;23.20;99.90;;;;;;5067741;28;20171;-73
2021/08/16 05:26:35;;;;;;;1.60;1.13;;;23.40;99.90;;;;;;5067809;28;20164;-75
2021/08/16 05:29:01;;;;;;;1.85;1.27;;;24.00;99.90;;;;;;5064549;28;20517;-76
2021/08/16 05:31:27;;;;;;;5.30;0.90;;;24.50;99.90;;;;;;5067286;28;20196;-77
2021/08/16 05:33:53;;;;;;;0.82;0.68;;;24.80;99.90;;;;;;5066396;28;20196;-74
2021/08/16 05:36:19;;;;;;;1.05;0.80;;;24.00;99.90;;;;;;5065563;28;20199;-75
2021/08/16 05:38:45;;;;;;;0.55;0.55;;;24.10;99.90;;;;;;5067384;28;20153;-75
2021/08/16 05:41:12;;;;;;;1.17;1.05;;;24.50;99.90;;;;;;5067123;28;20160;-74
2021/08/16 05:43:38;;;;;;;1.48;1.38;;;24.80;99.90;;;;;;5066165;28;20171;-74
2021/08/16 05:46:04;;;;;;;1.70;1.60;;;24.60;99.90;;;;;;5065707;28;20669;-74
2021/08/16 05:48:30;;;;;;;1.50;1.40;;;25.50;99.90;;;;;;5067439;28;20249;-74
2021/08/16 05:50:56;;;;;;;2.15;0.98;;;25.80;99.90;;;;;;5067534;28;20204;-74
2021/08/16 05:53:22;;;;;;;2.30;1.10;;;25.90;99.90;;;;;;5066643;28;20176;-76
2021/08/16 05:55:48;;;;;;;2.25;1.33;;;26.50;99.90;;;;;;5067246;28;20210;-74
2021/08/16 05:58:14;;;;;;;1.55;1.33;;;26.10;99.90;;;;;;5067331;28;20501;-72
2021/08/16 06:00:40;;;;;;;2.85;2.65;;;26.10;99.90;;;;;;5067642;28;20260;-73
2021/08/16 06:03:06;;;;;;;0.90;0.88;;;26.10;99.90;;;;;;5067097;28;20172;-72
2021/08/16 06:05:32;;;;;;;1.38;1.27;;;26.60;99.90;;;;;;5064297;28;20224;-72
2021/08/16 06:07:57;;;;;;;1.70;0.88;;;26.00;99.90;;;;;;5046220;28;20203;-72
2021/08/16 06:10:23;;;;;;;2.97;1.10;;;25.60;99.90;;;;;;5045873;28;20238;-72
2021/08/16 06:12:49;;;;;;;0.70;0.50;;;26.60;99.90;;;;;;5047512;28;20168;-72
2021/08/16 06:15:15;;;;;;;1.48;0.85;;;26.60;99.90;;;;;;5053568;28;20306;-72
2021/08/16 06:17:41;;;;;;;1.13;1.02;;;25.80;99.90;;;;;;5066228;28;20168;-74
2021/08/16 06:20:10;;;;;;;0.93;0.75;;;26.40;99.90;;;;;;5058598;28;20664;-73
2021/08/16 06:22:39;;;;;;;1.00;1.00;;;25.90;99.90;;;;;;5054556;28;20165;-72
2021/08/16 06:25:06;;;;;;;2.05;1.42;;;26.70;99.90;;;;;;5070317;28;20208;-73
2021/08/16 06:27:31;;;;;;;1.00;0.95;;;26.60;99.90;;;;;;5061660;28;20165;-74
2021/08/16 06:29:57;;;;;;;0.95;0.75;;;26.60;99.90;;;;;;5050721;28;20258;-74
2021/08/16 06:32:23;;;;;;;0.50;0.50;;;26.80;99.90;;;;;;5051164;28;20164;-73
2021/08/16 06:34:50;;;;;;;4.90;1.85;;;27.60;99.90;;;;;;5049089;28;20183;-73
2021/08/16 06:37:16;;;;;;;4.95;1.85;;;28.40;99.90;;;;;;5049983;28;20200;-75
2021/08/16 06:39:42;;;;;;;0.52;0.52;;;28.90;99.90;;;;;;5051150;28;20153;-74
2021/08/16 06:42:09;;;;;;;1.17;1.08;;;28.40;99.90;;;;;;5050712;28;20161;-73
2021/08/16 06:44:37;;;;;;;0.98;0.95;;;28.20;99.90;;;;;;5050525;28;20161;-74
2021/08/16 06:47:05;;;;;;;0.63;0.63;;;27.30;99.90;;;;;;5066872;28;20204;-74
2021/08/16 06:49:30;;;;;;;17.42;0.57;;;26.00;99.90;;;;;;5070154;28;20223;-74
2021/08/16 06:51:56;;;;;;;0.30;0.30;;;25.30;99.90;;;;;;5070349;28;20180;-74
2021/08/16 06:54:23;;;;;;;3.33;1.17;;;24.00;99.90;;;;;;5052864;28;20176;-73
2021/08/16 06:56:50;;;;;;;0.40;0.40;;;23.20;99.90;;;;;;5068206;28;20284;-74
2021/08/16 06:59:16;;;;;;;0.85;0.85;;;22.80;99.90;;;;;;5067402;28;20208;-73
2021/08/16 07:01:43;;;;;;;2.28;0.85;;;22.70;99.90;;;;;;5065345;28;20208;-74
2021/08/16 07:04:09;;;;;;;6.13;1.20;;;22.50;99.90;;;;;;5067401;28;20316;-75
2021/08/16 07:06:35;;;;;;;0.45;0.45;;;22.30;99.90;;;;;;5068641;28;20211;-74
2021/08/16 07:09:01;;;;;;;9.43;0.88;;;22.50;99.90;;;;;;5068137;28;20203;-74
2021/08/16 07:11:27;;;;;;;1.70;1.17;;;22.90;99.90;;;;;;5069167;28;20188;-74
2021/08/16 07:13:53;;;;;;;2.65;1.52;;;23.20;99.90;;;;;;5068949;28;20161;-75
2021/08/16 07:16:21;;;;;;;0.50;0.50;;;23.20;99.90;;;;;;5069469;28;20192;-74
2021/08/16 07:18:47;;;;;;;0.35;0.35;;;23.40;99.90;;;;;;5066372;28;21097;-76
2021/08/16 07:21:13;;;;;;;1.55;0.98;;;23.80;99.90;;;;;;5068969;28;20260;-73
2021/08/16 07:23:39;;;;;;;0.43;0.43;;;25.50;99.90;;;;;;5069634;28;20156;-74
2021/08/16 07:26:06;;;;;;;0.60;0.60;;;26.80;99.90;;;;;;5069597;28;20203;-74
2021/08/16 07:28:33;;;;;;;2.10;1.50;;;27.70;99.90;;;;;;5049792;28;20169;-74
2021/08/16 07:31:00;;;;;;;0.68;0.68;;;28.40;99.90;;;;;;5049008;28;20248;-74
2021/08/16 07:33:27;;;;;;;0.38;0.38;;;28.70;99.90;;;;;;5064367;28;20199;-74
2021/08/16 07:35:53;;;;;;;0.47;0.45;;;28.90;99.90;;;;;;5069507;28;20175;-73
2021/08/16 07:38:19;;;;;;;1.38;0.80;;;29.10;99.90;;;;;;5066588;28;20199;-74
2021/08/16 07:40:46;;;;;;;0.80;0.80;;;29.40;99.90;;;;;;5069223;28;20191;-74
2021/08/16 07:43:12;;;;;;;1.23;1.13;;;29.60;99.90;;;;;;5067307;28;20196;-74
2021/08/16 07:45:38;;;;;;;2.33;1.30;;;29.70;99.90;;;;;;5067139;28;20262;-74
2021/08/16 07:48:04;;;;;;;0.65;0.65;;;30.40;99.90;;;;;;5068732;28;20245;-74
2021/08/16 07:50:32;;;;;;;1.83;1.55;;;30.60;99.90;;;;;;5066494;28;20203;-73
2021/08/16 07:52:58;;;;;;;1.73;1.02;;;30.10;99.90;;;;;;5069105;28;20195;-73
2021/08/16 07:55:25;;;;;;;1.17;0.75;;;30.00;99.90;;;;;;5069028;28;20187;-74
2021/08/16 07:57:52;;;;;;;1.95;1.35;;;30.20;99.90;;;;;;5067517;28;20169;-74
2021/08/16 08:00:18;;;;;;;0.77;0.77;;;30.70;99.90;;;;;;5069109;28;20243;-73
2021/08/16 08:02:47;;;;;;;0.40;0.20;;;30.40;99.90;;;;;;5068994;28;20188;-74
2021/08/16 08:05:15;;;;;;;4.60;0.75;;;31.30;99.90;;;;;;5068867;28;20163;-73
2021/08/16 08:07:42;;;;;;;0.75;0.75;;;31.60;99.90;;;;;;5067399;28;20156;-76
2021/08/16 08:10:10;;;;;;;2.10;1.10;;;31.40;99.90;;;;;;5065512;28;20196;-72
2021/08/16 08:12:37;;;;;;;1.55;1.45;;;29.40;99.90;;;;;;5065787;28;20207;-72
2021/08/16 08:15:04;;;;;;;0.60;0.45;;;29.40;99.90;;;;;;5068850;28;20176;-73
2021/08/16 08:17:30;;;;;;;2.55;1.23;;;29.70;99.90;;;;;;5068000;28;20191;-73
2021/08/16 08:19:56;;;;;;;3.60;1.27;;;28.80;99.90;;;;;;5068354;28;20188;-73
2021/08/16 08:22:24;;;;;;;1.02;1.02;;;28.20;99.90;;;;;;5068676;28;20192;-73
2021/08/16 08:24:51;;;;;;;0.28;0.28;;;27.50;99.90;;;;;;5067169;28;20168;-73
2021/08/16 08:27:17;;;;;;;1.25;1.15;;;27.60;99.90;;;;;;5068385;28;20192;-73
2021/08/16 08:29:43;;;;;;;1.88;1.00;;;27.50;99.90;;;;;;5067697;28;20176;-73
2021/08/16 08:32:11;;;;;;;0.43;0.43;;;27.20;99.90;;;;;;5068271;28;20192;-71
2021/08/16 08:34:37;;;;;;;1.75;1.52;;;27.30;99.90;;;;;;5068286;28;20164;-72
2021/08/16 08:37:08;;;;;;;0.32;0.32;;;27.90;99.90;;;;;;5066928;28;20176;-73
2021/08/16 08:39:34;;;;;;;0.60;0.60;;;28.30;99.90;;;;;;5064537;28;20259;-74
2021/08/16 08:42:01;;;;;;;0.77;0.77;;;28.70;99.90;;;;;;5066905;28;20190;-73
2021/08/16 08:44:28;;;;;;;1.65;1.13;;;28.90;99.90;;;;;;5067370;28;20152;-75
2021/08/16 08:46:53;;;;;;;2.35;0.68;;;30.30;99.90;;;;;;5066960;28;20206;-74
2021/08/16 08:49:20;;;;;;;1.33;0.95;;;30.60;99.90;;;;;;5067949;28;20224;-74
2021/08/16 08:51:46;;;;;;;0.93;0.93;;;30.20;99.90;;;;;;5067178;28;20640;-74
2021/08/16 08:54:12;;;;;;;0.50;0.50;;;30.70;99.90;;;;;;5065837;28;20286;-74
2021/08/16 08:56:38;;;;;;;1.98;0.85;;;31.50;99.90;;;;;;5066719;28;20171;-74
2021/08/16 08:59:04;;;;;;;0.95;0.75;;;31.80;99.90;;;;;;5068064;28;20219;-74
2021/08/16 09:01:31;;;;;;;0.55;0.55;;;32.20;99.90;;;;;;5068012;28;20200;-74
2021/08/16 09:03:57;;;;;;;14.60;0.80;;;31.70;99.90;;;;;;5077631;28;20186;-74
2021/08/16 09:06:41;;;;;;;0.50;0.50;;;30.50;99.90;;;;;;5072833;28;20168;-74
2021/08/16 09:09:07;;;;;;;2.85;1.23;;;31.50;99.90;;;;;;5065769;28;20180;-74
2021/08/16 09:11:33;;;;;;;0.73;0.70;;;30.90;99.90;;;;;;5071989;28;20535;-74
2021/08/16 09:14:00;;;;;;;0.65;0.65;;;31.50;99.90;;;;;;5077573;28;20198;-75
2021/08/16 09:16:29;;;;;;;0.68;0.50;;;32.20;99.90;;;;;;5070118;28;20202;-74
2021/08/16 09:18:55;;;;;;;1.30;0.80;;;31.50;99.90;;;;;;5064953;28;20237;-72
2021/08/16 09:21:32;;;;;;;1.65;0.75;;;31.40;99.90;;;;;;5069465;28;20195;-72
2021/08/16 09:24:00;;;;;;;2.38;0.75;;;32.20;99.90;;;;;;5082049;28;20236;-74
2021/08/16 09:26:32;;;;;;;0.70;0.70;;;32.90;99.90;;;;;;5079111;28;20172;-74
2021/08/16 09:29:15;;;;;;;1.25;1.13;;;33.10;99.90;;;;;;5066063;28;20183;-73
2021/08/16 09:31:56;;;;;;;0.50;0.50;;;32.70;99.90;;;;;;5082418;28;20206;-74
2021/08/16 09:34:30;;;;;;;2.83;1.17;;;32.80;99.90;;;;;;5074818;28;20163;-74
2021/08/16 09:37:00;;;;;;;0.55;0.45;;;32.80;99.90;;;;;;5072683;28;20229;-74
2021/08/16 09:39:29;;;;;;;1.85;0.93;;;32.30;99.90;;;;;;5069900;28;20200;-74
2021/08/16 09:42:04;;;;;;;3.55;1.02;;;32.60;99.90;;;;;;5065654;28;20191;-74
2021/08/16 09:44:31;;;;;;;1.80;1.52;;;32.80;99.90;;;;;;5063517;28;20213;-74
2021/08/16 09:47:06;;;;;;;1.10;0.75;;;32.70;99.90;;;;;;5066263;28;20203;-73
2021/08/16 09:49:33;;;;;;;0.35;0.35;;;32.90;99.90;;;;;;5067274;28;20222;-73
2021/08/16 09:52:12;;;;;;;1.85;1.25;;;33.10;99.90;;;;;;5066309;28;20164;-73
2021/08/16 09:54:39;;;;;;;1.10;0.63;;;32.10;99.90;;;;;;5066842;28;20198;-73
2021/08/16 09:57:07;;;;;;;2.70;1.85;;;32.10;99.90;;;;;;5068505;28;20187;-73
2021/08/16 09:59:34;;;;;;;0.80;0.80;;;31.70;99.90;;;;;;5069304;28;20196;-73
2021/08/16 10:02:01;;;;;;;1.38;1.30;;;30.80;99.90;;;;;;5069230;28;20207;-74
2021/08/16 10:04:31;;;;;;;0.75;0.75;;;30.20;99.90;;;;;;5070143;28;20297;-74
2021/08/16 10:06:58;;;;;;;0.50;0.50;;;30.00;99.90;;;;;;5071026;28;20184;-74
2021/08/16 10:09:26;;;;;;;1.00;0.60;;;29.40;99.90;;;;;;5060578;28;20608;-75
2021/08/16 10:11:54;;;;;;;1.35;0.95;;;29.00;99.90;;;;;;5069976;28;20219;-75
2021/08/16 10:14:25;;;;;;;2.42;1.77;;;28.90;99.90;;;;;;5071168;28;20168;-74
2021/08/16 10:16:53;;;;;;;0.88;0.38;;;28.40;99.90;;;;;;5063758;28;20281;-75
2021/08/16 10:19:23;;;;;;;1.10;1.00;;;28.20;99.90;;;;;;5070970;28;20196;-75
2021/08/16 10:21:51;;;;;;;4.18;0.98;;;28.60;99.90;;;;;;5072269;28;20182;-76
2021/08/16 10:24:25;;;;;;;0.40;0.40;;;28.60;99.90;;;;;;5083333;28;20203;-75
2021/08/16 10:27:28;;;;;;;0.70;0.70;;;29.00;99.90;;;;;;5063971;28;20176;-73
2021/08/16 10:30:11;;;;;;;0.85;0.82;;;29.20;99.90;;;;;;5058400;28;20203;-75
2021/08/16 10:32:37;;;;;;;4.28;1.85;;;29.10;99.90;;;;;;5062403;28;20205;-75
2021/08/16 10:35:14;;;;;;;2.65;1.17;;;28.90;99.90;;;;;;5061753;28;20329;-75
2021/08/16 10:37:45;;;;;;;1.15;0.90;;;28.80;99.90;;;;;;5071404;28;20175;-75
2021/08/16 10:40:41;;;;;;;1.08;1.08;;;28.80;99.90;;;;;;5068945;28;20218;-75
2021/08/16 10:43:13;;;;;;;4.00;1.58;;;29.00;99.90;;;;;;5082936;28;20275;-75
2021/08/16 10:45:44;;;;;;;1.27;0.80;;;28.80;99.90;;;;;;5072710;28;20185;-75
2021/08/16 10:48:10;;;;;;;7.68;0.77;;;28.50;99.90;;;;;;5083104;28;20219;-76
2021/08/16 10:50:37;;;;;;;0.47;0.47;;;28.20;99.90;;;;;;5067480;28;20303;-73
2021/08/16 10:53:06;;;;;;;0.85;0.35;;;28.30;99.90;;;;;;5068594;28;20168;-75
2021/08/16 10:55:35;;;;;;;8.88;0.82;;;28.00;99.90;;;;;;5065148;28;20185;-74
2021/08/16 10:58:01;;;;;;;2.17;1.33;;;27.70;99.90;;;;;;5065361;28;20172;-73
2021/08/16 11:00:27;;;;;;;0.88;0.88;;;27.30;99.90;;;;;;5080383;28;20314;-73
2021/08/16 11:02:56;;;;;;;0.22;0.22;;;27.50;99.90;;;;;;5075050;28;20196;-73
2021/08/16 11:05:34;;;;;;;1.40;0.98;;;27.40;99.90;;;;;;5058457;28;20225;-74
2021/08/16 11:08:04;;;;;;;1.30;1.00;;;27.50;99.90;;;;;;5057162;28;20450;-74
2021/08/16 11:11:06;;;;;;;2.70;1.85;;;27.90;99.90;;;;;;5078779;28;20442;-74
2021/08/16 11:13:33;;;;;;;1.52;1.00;;;28.40;99.90;;;;;;5071879;28;20178;-75
2021/08/16 11:16:06;;;;;;;1.27;1.23;;;28.80;99.90;;;;;;5085433;28;20195;-75
2021/08/16 11:18:32;;;;;;;14.90;0.98;;;29.30;99.90;;;;;;5077252;28;20874;-74
2021/08/16 11:21:00;;;;;;;0.98;0.85;;;29.50;99.90;;;;;;5069740;28;20195;-74
2021/08/16 11:23:26;;;;;;;1.88;0.82;;;29.40;99.90;;;;;;5084001;28;20171;-74
2021/08/16 11:25:57;;;;;;;1.45;1.35;;;29.60;99.90;;;;;;5066310;28;20188;-74
2021/08/16 11:28:28;;;;;;;2.08;1.60;;;29.60;99.90;;;;;;5069314;28;20164;-74
2021/08/16 11:31:14;;;;;;;1.13;0.68;;;29.60;99.90;;;;;;5081179;28;20282;-73
2021/08/16 11:33:40;;;;;;;0.75;0.75;;;28.90;99.90;;;;;;5073018;28;20171;-75
2021/08/16 11:36:11;;;;;;;13.85;1.25;;;28.60;99.90;;;;;;5084313;28;20224;-74
2021/08/16 11:38:43;;;;;;;1.27;1.17;;;28.80;99.90;;;;;;5079617;28;20217;-75
2021/08/16 11:41:14;;;;;;;1.42;1.25;;;29.20;99.90;;;;;;5073959;28;20179;-75
2021/08/16 11:43:40;;;;;;;2.90;1.45;;;29.10;99.90;;;;;;5086895;28;20198;-75
2021/08/16 11:46:32;;;;;;;0.55;0.50;;;29.00;99.90;;;;;;5083237;28;20589;-75
2021/08/16 11:48:58;;;;;;;1.25;0.95;;;28.70;99.90;;;;;;5081878;28;20217;-75
2021/08/16 11:51:24;;;;;;;0.98;0.88;;;28.60;99.90;;;;;;5073010;28;20269;-75
2021/08/16 11:53:50;;;;;;;0.52;0.52;;;28.50;99.90;;;;;;5084562;28;20698;-75
2021/08/16 11:56:16;;;;;;;1.92;1.15;;;28.30;99.90;;;;;;5074653;28;20631;-75
2021/08/16 11:58:44;;;;;;;2.03;0.88;;;28.20;99.90;;;;;;5077821;28;20168;-74
2021/08/16 12:01:11;;;;;;;1.23;0.45;;;28.30;99.90;;;;;;5083135;28;20168;-75
2021/08/16 12:03:38;;;;;;;1.27;1.17;;;28.20;99.90;;;;;;5070631;28;20538;-74
2021/08/16 12:06:11;;;;;;;0.57;0.57;;;28.10;99.90;;;;;;5066903;28;20208;-74
2021/08/16 12:08:38;;;;;;;1.77;0.82;;;28.20;99.90;;;;;;5062649;28;20206;-74
2021/08/16 12:11:15;;;;;;;1.35;1.23;;;27.90;99.90;;;;;;5066286;28;20192;-75
2021/08/16 12:13:41;;;;;;;3.55;1.30;;;27.70;99.90;;;;;;5073895;28;20164;-74
2021/08/16 12:16:13;;;;;;;1.00;0.90;;;27.40;99.90;;;;;;5079099;28;20477;-74
2021/08/16 12:18:39;;;;;;;1.83;1.10;;;27.20;99.90;;;;;;5081503;28;20164;-75
2021/08/16 12:21:05;;;;;;;1.52;1.27;;;27.00;99.90;;;;;;5063155;28;20218;-75
2021/08/16 12:23:36;;;;;;;0.82;0.77;;;26.70;99.90;;;;;;5062574;28;20196;-75
2021/08/16 12:26:06;;;;;;;1.08;1.00;;;26.40;99.90;;;;;;5066360;28;20660;-74
2021/08/16 12:28:40;;;;;;;0.80;0.43;;;25.90;99.90;;;;;;5064415;28;20215;-74
2021/08/16 12:31:18;;;;;;;0.75;0.43;;;25.30;99.90;;;;;;5065884;28;20191;-74
2021/08/16 12:34:04;;;;;;;14.00;1.25;;;24.50;99.90;;;;;;5063821;28;20199;-73
2021/08/16 12:36:38;;;;;;;1.45;1.33;;;22.60;99.90;;;;;;5060743;28;20255;-73
2021/08/16 12:39:09;;;;;;;0.82;0.77;;;21.40;99.90;;;;;;5064731;28;20219;-73
2021/08/16 12:41:36;;;;;;;3.70;1.58;;;21.10;99.90;;;;;;5061935;28;20196;-72
2021/08/16 12:44:02;;;;;;;0.95;0.93;;;21.00;99.90;;;;;;5066647;28;20200;-73
2021/08/16 12:46:33;;;;;;;2.13;2.00;;;21.00;99.90;;;;;;5067018;28;20188;-73
2021/08/16 12:49:01;;;;;;;0.75;0.75;;;20.90;99.90;;;;;;5066639;28;20231;-74